sensor_id;sensor_type;location;lat;lon;timestamp;pressure;altitude;pressure_sealevel;temperature;humidity
71857;BME280;63344;46.980;28.882;2023-04-15T00:01:09;100151.72;;;10.07;79.87
71857;BME280;63344;46.980;28.882;2023-04-15T00:03:38;100146.47;;;10.05;79.77
71857;BME280;63344;46.980;28.882;2023-04-15T00:06:05;100142.16;;;10.03;80.25
71857;BME280;63344;46.980;28.882;2023-04-15T00:08:41;100143.03;;;10.03;80.37
71857;BME280;63344;46.980;28.882;2023-04-15T00:11:08;100144.03;;;10.01;80.61
71857;BME280;63344;46.980;28.882;2023-04-15T00:13:35;100139.84;;;9.95;80.81
71857;BME280;63344;46.980;28.882;2023-04-15T00:16:04;100139.06;;;9.93;81.07
71857;BME280;63344;46.980;28.882;2023-04-15T00:18:32;100148.00;;;9.90;81.22
71857;BME280;63344;46.980;28.882;2023-04-15T00:20:59;100141.09;;;9.86;81.60
71857;BME280;63344;46.980;28.882;2023-04-15T00:23:27;100142.94;;;9.84;82.24
71857;BME280;63344;46.980;28.882;2023-04-15T00:25:54;100135.94;;;9.83;82.31
71857;BME280;63344;46.980;28.882;2023-04-15T00:28:22;100136.84;;;9.82;82.95
71857;BME280;63344;46.980;28.882;2023-04-15T00:30:49;100137.81;;;9.81;83.56
71857;BME280;63344;46.980;28.882;2023-04-15T00:33:19;100137.00;;;9.79;83.67
71857;BME280;63344;46.980;28.882;2023-04-15T00:35:46;100131.81;;;9.76;84.35
71857;BME280;63344;46.980;28.882;2023-04-15T00:38:13;100124.88;;;9.73;84.68
71857;BME280;63344;46.980;28.882;2023-04-15T00:40:40;100127.59;;;9.72;85.20
71857;BME280;63344;46.980;28.882;2023-04-15T00:43:08;100121.63;;;9.67;85.91
71857;BME280;63344;46.980;28.882;2023-04-15T00:45:35;100115.38;;;9.68;86.02
71857;BME280;63344;46.980;28.882;2023-04-15T00:48:04;100122.53;;;9.66;86.39
71857;BME280;63344;46.980;28.882;2023-04-15T00:50:32;100114.78;;;9.61;86.68
71857;BME280;63344;46.980;28.882;2023-04-15T00:52:59;100115.53;;;9.65;87.52
71857;BME280;63344;46.980;28.882;2023-04-15T00:55:27;100113.78;;;9.64;87.70
71857;BME280;63344;46.980;28.882;2023-04-15T00:57:55;100116.50;;;9.62;87.91
71857;BME280;63344;46.980;28.882;2023-04-15T01:00:23;100114.91;;;9.58;87.77
71857;BME280;63344;46.980;28.882;2023-04-15T01:02:50;100115.91;;;9.55;88.44
71857;BME280;63344;46.980;28.882;2023-04-15T01:05:18;100117.72;;;9.55;88.68
71857;BME280;63344;46.980;28.882;2023-04-15T01:07:46;100109.75;;;9.55;88.48
71857;BME280;63344;46.980;28.882;2023-04-15T01:10:14;100125.66;;;9.55;88.50
71857;BME280;63344;46.980;28.882;2023-04-15T01:12:41;100130.97;;;9.55;88.58
71857;BME280;63344;46.980;28.882;2023-04-15T01:15:09;100130.97;;;9.55;89.09
71857;BME280;63344;46.980;28.882;2023-04-15T01:17:38;100137.97;;;9.56;88.87
71857;BME280;63344;46.980;28.882;2023-04-15T01:20:05;100142.31;;;9.59;88.61
71857;BME280;63344;46.980;28.882;2023-04-15T01:22:36;100149.31;;;9.60;88.34
71857;BME280;63344;46.980;28.882;2023-04-15T01:25:12;100159.13;;;9.57;88.43
71857;BME280;63344;46.980;28.882;2023-04-15T01:27:43;100165.97;;;9.63;88.21
71857;BME280;63344;46.980;28.882;2023-04-15T01:30:11;100177.44;;;9.64;88.05
71857;BME280;63344;46.980;28.882;2023-04-15T01:32:38;100172.00;;;9.67;87.94
71857;BME280;63344;46.980;28.882;2023-04-15T01:35:06;100178.13;;;9.69;87.70
71857;BME280;63344;46.980;28.882;2023-04-15T01:37:33;100174.47;;;9.71;87.86
71857;BME280;63344;46.980;28.882;2023-04-15T01:40:01;100165.56;;;9.72;87.91
71857;BME280;63344;46.980;28.882;2023-04-15T01:42:30;100176.06;;;9.75;87.61
71857;BME280;63344;46.980;28.882;2023-04-15T01:44:58;100166.34;;;9.74;87.33
71857;BME280;63344;46.980;28.882;2023-04-15T01:47:25;100161.06;;;9.74;87.42
71857;BME280;63344;46.980;28.882;2023-04-15T01:49:52;100165.56;;;9.72;87.57
71857;BME280;63344;46.980;28.882;2023-04-15T01:52:20;100171.88;;;9.70;87.52
71857;BME280;63344;46.980;28.882;2023-04-15T01:54:47;100165.72;;;9.69;87.88
71857;BME280;63344;46.980;28.882;2023-04-15T01:57:15;100168.41;;;9.68;87.98
71857;BME280;63344;46.980;28.882;2023-04-15T01:59:43;100164.06;;;9.67;87.55
71857;BME280;63344;46.980;28.882;2023-04-15T02:02:10;100163.16;;;9.66;87.93
71857;BME280;63344;46.980;28.882;2023-04-15T02:04:38;100172.88;;;9.67;87.71
71857;BME280;63344;46.980;28.882;2023-04-15T02:07:07;100178.16;;;9.67;87.57
71857;BME280;63344;46.980;28.882;2023-04-15T02:09:34;100187.78;;;9.70;87.50
71857;BME280;63344;46.980;28.882;2023-04-15T02:12:01;100188.63;;;9.70;87.44
71857;BME280;63344;46.980;28.882;2023-04-15T02:14:29;100187.84;;;9.68;87.48
71857;BME280;63344;46.980;28.882;2023-04-15T02:16:56;100192.16;;;9.71;87.72
71857;BME280;63344;46.980;28.882;2023-04-15T02:19:23;100193.94;;;9.70;87.35
71857;BME280;63344;46.980;28.882;2023-04-15T02:21:51;100191.22;;;9.72;87.55
71857;BME280;63344;46.980;28.882;2023-04-15T02:24:18;100180.63;;;9.72;87.38
71857;BME280;63344;46.980;28.882;2023-04-15T02:26:45;100191.22;;;9.72;87.27
71857;BME280;63344;46.980;28.882;2023-04-15T02:29:12;100194.66;;;9.74;87.47
71857;BME280;63344;46.980;28.882;2023-04-15T02:31:40;100198.25;;;9.73;87.48
71857;BME280;63344;46.980;28.882;2023-04-15T02:34:08;100191.22;;;9.72;87.08
71857;BME280;63344;46.980;28.882;2023-04-15T02:36:35;100185.91;;;9.72;87.30
71857;BME280;63344;46.980;28.882;2023-04-15T02:39:02;100192.06;;;9.72;87.34
71857;BME280;63344;46.980;28.882;2023-04-15T02:41:30;100192.88;;;9.74;87.20
71857;BME280;63344;46.980;28.882;2023-04-15T02:43:57;100185.81;;;9.75;87.49
71857;BME280;63344;46.980;28.882;2023-04-15T02:46:24;100190.16;;;9.76;86.95
71857;BME280;63344;46.980;28.882;2023-04-15T02:48:53;100188.31;;;9.78;87.26
71857;BME280;63344;46.980;28.882;2023-04-15T02:51:21;100191.91;;;9.77;87.51
71857;BME280;63344;46.980;28.882;2023-04-15T02:53:52;100181.28;;;9.77;87.12
71857;BME280;63344;46.980;28.882;2023-04-15T02:56:19;100156.63;;;9.75;87.43
71857;BME280;63344;46.980;28.882;2023-04-15T02:58:50;100147.88;;;9.73;87.93
71857;BME280;63344;46.980;28.882;2023-04-15T03:01:17;100155.91;;;9.71;88.11
71857;BME280;63344;46.980;28.882;2023-04-15T03:03:47;100169.22;;;9.70;88.33
71857;BME280;63344;46.980;28.882;2023-04-15T03:06:14;100175.31;;;9.72;88.32
71857;BME280;63344;46.980;28.882;2023-04-15T03:08:42;100176.97;;;9.74;88.46
71857;BME280;63344;46.980;28.882;2023-04-15T03:11:09;100178.66;;;9.77;88.89
71857;BME280;63344;46.980;28.882;2023-04-15T03:13:37;100177.69;;;9.78;89.06
71857;BME280;63344;46.980;28.882;2023-04-15T03:16:06;100184.59;;;9.82;89.24
71857;BME280;63344;46.980;28.882;2023-04-15T03:18:33;100180.03;;;9.86;89.49
71857;BME280;63344;46.980;28.882;2023-04-15T03:21:01;100176.47;;;9.87;89.12
71857;BME280;63344;46.980;28.882;2023-04-15T03:23:30;100186.00;;;9.91;89.28
71857;BME280;63344;46.980;28.882;2023-04-15T03:26:00;100188.50;;;9.94;89.28
71857;BME280;63344;46.980;28.882;2023-04-15T03:28:29;100184.88;;;9.96;89.15
71857;BME280;63344;46.980;28.882;2023-04-15T03:30:58;100180.50;;;9.95;89.13
71857;BME280;63344;46.980;28.882;2023-04-15T03:33:25;100191.91;;;9.97;89.54
71857;BME280;63344;46.980;28.882;2023-04-15T03:35:52;100183.22;;;9.94;89.15
71857;BME280;63344;46.980;28.882;2023-04-15T03:38:19;100179.44;;;10.00;89.10
71857;BME280;63344;46.980;28.882;2023-04-15T03:40:48;100183.03;;;9.99;89.27
71857;BME280;63344;46.980;28.882;2023-04-15T03:43:15;100188.34;;;9.99;88.87
71857;BME280;63344;46.980;28.882;2023-04-15T03:45:42;100186.59;;;9.97;88.94
71857;BME280;63344;46.980;28.882;2023-04-15T03:48:09;100191.91;;;9.97;88.95
71857;BME280;63344;46.980;28.882;2023-04-15T03:50:45;100179.50;;;9.98;89.05
71857;BME280;63344;46.980;28.882;2023-04-15T03:53:12;100180.38;;;9.99;88.68
71857;BME280;63344;46.980;28.882;2023-04-15T03:55:39;100189.25;;;9.97;88.50
71857;BME280;63344;46.980;28.882;2023-04-15T03:58:06;100195.50;;;9.96;88.86
71857;BME280;63344;46.980;28.882;2023-04-15T04:00:34;100209.63;;;9.97;88.74
71857;BME280;63344;46.980;28.882;2023-04-15T04:03:02;100205.22;;;9.96;88.33
71857;BME280;63344;46.980;28.882;2023-04-15T04:05:31;100209.69;;;9.95;88.40
71857;BME280;63344;46.980;28.882;2023-04-15T04:07:58;100212.38;;;9.94;88.54
71857;BME280;63344;46.980;28.882;2023-04-15T04:10:27;100215.03;;;9.94;88.49
71857;BME280;63344;46.980;28.882;2023-04-15T04:12:54;100218.69;;;9.91;88.59
71857;BME280;63344;46.980;28.882;2023-04-15T04:15:21;100225.84;;;9.89;88.65
71857;BME280;63344;46.980;28.882;2023-04-15T04:17:48;100225.81;;;9.91;88.43
71857;BME280;63344;46.980;28.882;2023-04-15T04:20:16;100221.41;;;9.90;88.58
71857;BME280;63344;46.980;28.882;2023-04-15T04:22:43;100231.22;;;9.88;88.82
71857;BME280;63344;46.980;28.882;2023-04-15T04:25:10;100225.97;;;9.86;88.95
71857;BME280;63344;46.980;28.882;2023-04-15T04:27:37;100232.16;;;9.87;88.51
71857;BME280;63344;46.980;28.882;2023-04-15T04:30:05;100230.47;;;9.84;89.07
71857;BME280;63344;46.980;28.882;2023-04-15T04:32:33;100223.41;;;9.85;88.53
71857;BME280;63344;46.980;28.882;2023-04-15T04:35:00;100234.06;;;9.83;88.90
71857;BME280;63344;46.980;28.882;2023-04-15T04:37:28;100241.28;;;9.80;88.75
71857;BME280;63344;46.980;28.882;2023-04-15T04:39:55;100244.81;;;9.80;89.06
71857;BME280;63344;46.980;28.882;2023-04-15T04:42:22;100241.28;;;9.80;89.01
71857;BME280;63344;46.980;28.882;2023-04-15T04:44:50;100237.84;;;9.77;89.34
71857;BME280;63344;46.980;28.882;2023-04-15T04:47:17;100238.69;;;9.78;89.36
71857;BME280;63344;46.980;28.882;2023-04-15T04:49:44;100233.41;;;9.78;89.53
71857;BME280;63344;46.980;28.882;2023-04-15T04:52:11;100224.53;;;9.79;89.35
71857;BME280;63344;46.980;28.882;2023-04-15T04:54:39;100226.22;;;9.80;89.32
71857;BME280;63344;46.980;28.882;2023-04-15T04:57:06;100217.38;;;9.81;89.41
71857;BME280;63344;46.980;28.882;2023-04-15T04:59:34;100212.91;;;9.82;88.87
71857;BME280;63344;46.980;28.882;2023-04-15T05:02:01;100220.06;;;9.80;89.14
71857;BME280;63344;46.980;28.882;2023-04-15T05:04:30;100228.78;;;9.83;89.09
71857;BME280;63344;46.980;28.882;2023-04-15T05:06:59;100229.69;;;9.82;88.98
71857;BME280;63344;46.980;28.882;2023-04-15T05:09:28;100235.78;;;9.84;88.96
71857;BME280;63344;46.980;28.882;2023-04-15T05:11:58;100234.06;;;9.83;88.85
71857;BME280;63344;46.980;28.882;2023-04-15T05:14:28;100242.88;;;9.84;88.99
71857;BME280;63344;46.980;28.882;2023-04-15T05:16:55;100218.16;;;9.83;88.91
71857;BME280;63344;46.980;28.882;2023-04-15T05:19:23;100224.31;;;9.84;89.04
71857;BME280;63344;46.980;28.882;2023-04-15T05:21:50;100236.59;;;9.86;88.89
71857;BME280;63344;46.980;28.882;2023-04-15T05:24:18;100250.78;;;9.85;88.88
71857;BME280;63344;46.980;28.882;2023-04-15T05:26:45;100238.38;;;9.86;89.42
71857;BME280;63344;46.980;28.882;2023-04-15T05:29:13;100237.47;;;9.87;89.02
71857;BME280;63344;46.980;28.882;2023-04-15T05:31:40;100248.78;;;9.90;89.08
71857;BME280;63344;46.980;28.882;2023-04-15T05:34:09;100265.50;;;9.92;89.20
71857;BME280;63344;46.980;28.882;2023-04-15T05:36:37;100268.91;;;9.96;88.69
71857;BME280;63344;46.980;28.882;2023-04-15T05:39:05;100253.88;;;9.96;89.16
71857;BME280;63344;46.980;28.882;2023-04-15T05:41:32;100261.69;;;10.00;89.44
71857;BME280;63344;46.980;28.882;2023-04-15T05:44:01;100263.28;;;10.04;88.95
71857;BME280;63344;46.980;28.882;2023-04-15T05:46:28;100264.06;;;10.06;89.10
71857;BME280;63344;46.980;28.882;2023-04-15T05:48:57;100262.22;;;10.08;88.69
71857;BME280;63344;46.980;28.882;2023-04-15T05:51:24;100256.00;;;10.09;88.90
71857;BME280;63344;46.980;28.882;2023-04-15T05:53:52;100254.94;;;10.13;88.64
71857;BME280;63344;46.980;28.882;2023-04-15T05:56:19;100263.53;;;10.18;88.46
71857;BME280;63344;46.980;28.882;2023-04-15T05:58:46;100272.28;;;10.20;88.23
71857;BME280;63344;46.980;28.882;2023-04-15T06:01:14;100279.13;;;10.26;88.34
71857;BME280;63344;46.980;28.882;2023-04-15T06:03:41;100280.78;;;10.28;88.08
71857;BME280;63344;46.980;28.882;2023-04-15T06:06:09;100290.41;;;10.32;87.98
71857;BME280;63344;46.980;28.882;2023-04-15T06:08:37;100288.47;;;10.36;87.98
71857;BME280;63344;46.980;28.882;2023-04-15T06:11:04;100290.94;;;10.41;87.60
71857;BME280;63344;46.980;28.882;2023-04-15T06:13:32;100289.78;;;10.46;87.35
71857;BME280;63344;46.980;28.882;2023-04-15T06:15:59;100284.34;;;10.49;87.41
71857;BME280;63344;46.980;28.882;2023-04-15T06:18:27;100285.88;;;10.55;87.40
71857;BME280;63344;46.980;28.882;2023-04-15T06:20:54;100290.13;;;10.59;86.83
71857;BME280;63344;46.980;28.882;2023-04-15T06:23:21;100288.19;;;10.63;86.36
71857;BME280;63344;46.980;28.882;2023-04-15T06:25:48;100293.28;;;10.67;85.91
71857;BME280;63344;46.980;28.882;2023-04-15T06:28:16;100290.50;;;10.70;85.16
71857;BME280;63344;46.980;28.882;2023-04-15T06:30:43;100298.22;;;10.76;85.04
71857;BME280;63344;46.980;28.882;2023-04-15T06:33:11;100289.97;;;10.83;84.88
71857;BME280;63344;46.980;28.882;2023-04-15T06:35:39;100288.88;;;10.87;84.44
71857;BME280;63344;46.980;28.882;2023-04-15T06:38:07;100291.19;;;10.94;84.11
71857;BME280;63344;46.980;28.882;2023-04-15T06:40:34;100287.25;;;11.03;83.26
71857;BME280;63344;46.980;28.882;2023-04-15T06:43:01;100300.25;;;11.09;83.27
71857;BME280;63344;46.980;28.882;2023-04-15T06:45:28;100287.69;;;11.13;82.61
71857;BME280;63344;46.980;28.882;2023-04-15T06:47:56;100283.88;;;11.19;82.72
71857;BME280;63344;46.980;28.882;2023-04-15T06:50:23;100290.63;;;11.26;81.97
71857;BME280;63344;46.980;28.882;2023-04-15T06:52:52;100291.34;;;11.29;81.85
71857;BME280;63344;46.980;28.882;2023-04-15T06:55:20;100298.47;;;11.29;82.29
71857;BME280;63344;46.980;28.882;2023-04-15T06:57:49;100296.59;;;11.31;82.79
71857;BME280;63344;46.980;28.882;2023-04-15T07:00:16;100297.31;;;11.34;82.53
71857;BME280;63344;46.980;28.882;2023-04-15T07:02:44;100304.28;;;11.37;83.08
71857;BME280;63344;46.980;28.882;2023-04-15T07:05:13;100300.91;;;11.33;82.35
71857;BME280;63344;46.980;28.882;2023-04-15T07:07:40;100305.41;;;11.31;83.58
71857;BME280;63344;46.980;28.882;2023-04-15T07:10:08;100294.06;;;11.28;82.75
71857;BME280;63344;46.980;28.882;2023-04-15T07:12:36;100294.06;;;11.28;83.48
71857;BME280;63344;46.980;28.882;2023-04-15T07:15:04;100299.47;;;11.26;83.04
71857;BME280;63344;46.980;28.882;2023-04-15T07:17:32;100313.47;;;11.30;83.09
71857;BME280;63344;46.980;28.882;2023-04-15T07:20:01;100301.97;;;11.29;83.26
71857;BME280;63344;46.980;28.882;2023-04-15T07:22:29;100310.97;;;11.27;83.32
71857;BME280;63344;46.980;28.882;2023-04-15T07:24:56;100323.13;;;11.32;83.83
71857;BME280;63344;46.980;28.882;2023-04-15T07:27:23;100322.88;;;11.37;84.14
71857;BME280;63344;46.980;28.882;2023-04-15T07:29:50;100318.06;;;11.45;83.98
71857;BME280;63344;46.980;28.882;2023-04-15T07:32:19;100334.81;;;11.47;83.16
71857;BME280;63344;46.980;28.882;2023-04-15T07:34:46;100344.25;;;11.54;83.41
71857;BME280;63344;46.980;28.882;2023-04-15T07:37:14;100341.28;;;11.61;83.13
71857;BME280;63344;46.980;28.882;2023-04-15T07:39:41;100334.88;;;11.65;83.37
71857;BME280;63344;46.980;28.882;2023-04-15T07:42:09;100329.34;;;11.69;83.26
71857;BME280;63344;46.980;28.882;2023-04-15T07:44:36;100336.16;;;11.75;83.17
71857;BME280;63344;46.980;28.882;2023-04-15T07:47:05;100337.50;;;11.84;82.71
71857;BME280;63344;46.980;28.882;2023-04-15T07:49:34;100329.38;;;11.87;82.23
71857;BME280;63344;46.980;28.882;2023-04-15T07:52:03;100336.59;;;11.85;82.36
71857;BME280;63344;46.980;28.882;2023-04-15T07:54:30;100327.75;;;11.84;81.96
71857;BME280;63344;46.980;28.882;2023-04-15T07:56:58;100327.16;;;11.97;82.27
71857;BME280;63344;46.980;28.882;2023-04-15T07:59:25;100339.09;;;12.07;81.57
71857;BME280;63344;46.980;28.882;2023-04-15T08:01:57;100332.59;;;12.12;81.19
71857;BME280;63344;46.980;28.882;2023-04-15T08:04:25;100331.50;;;12.17;81.59
71857;BME280;63344;46.980;28.882;2023-04-15T08:06:56;100339.00;;;12.26;81.23
71857;BME280;63344;46.980;28.882;2023-04-15T08:09:23;100350.38;;;12.29;80.63
71857;BME280;63344;46.980;28.882;2023-04-15T08:11:51;100338.94;;;12.27;80.42
71857;BME280;63344;46.980;28.882;2023-04-15T08:14:20;100345.81;;;12.31;80.83
71857;BME280;63344;46.980;28.882;2023-04-15T08:16:50;100344.03;;;12.32;80.67
71857;BME280;63344;46.980;28.882;2023-04-15T08:19:18;100336.53;;;12.40;80.38
71857;BME280;63344;46.980;28.882;2023-04-15T08:21:46;100345.91;;;12.47;80.42
71857;BME280;63344;46.980;28.882;2023-04-15T08:24:13;100337.22;;;12.61;80.03
71857;BME280;63344;46.980;28.882;2023-04-15T08:26:42;100339.88;;;12.79;79.45
71857;BME280;63344;46.980;28.882;2023-04-15T08:29:10;100336.91;;;13.01;78.55
71857;BME280;63344;46.980;28.882;2023-04-15T08:31:38;100337.41;;;13.25;77.74
71857;BME280;63344;46.980;28.882;2023-04-15T08:34:05;100338.03;;;13.62;76.02
71857;BME280;63344;46.980;28.882;2023-04-15T08:36:35;100340.81;;;13.76;75.71
71857;BME280;63344;46.980;28.882;2023-04-15T08:39:02;100349.06;;;13.71;75.10
71857;BME280;63344;46.980;28.882;2023-04-15T08:41:55;100357.78;;;13.75;75.62
71857;BME280;63344;46.980;28.882;2023-04-15T08:44:25;100342.72;;;13.74;75.13
71857;BME280;63344;46.980;28.882;2023-04-15T08:47:00;100341.69;;;13.77;75.37
71857;BME280;63344;46.980;28.882;2023-04-15T08:49:29;100342.94;;;13.85;75.47
71857;BME280;63344;46.980;28.882;2023-04-15T08:52:11;100332.59;;;13.95;74.79
71857;BME280;63344;46.980;28.882;2023-04-15T08:54:39;100331.19;;;14.04;73.87
71857;BME280;63344;46.980;28.882;2023-04-15T08:57:07;100334.88;;;14.17;73.74
71857;BME280;63344;46.980;28.882;2023-04-15T08:59:35;100319.47;;;14.22;73.64
71857;BME280;63344;46.980;28.882;2023-04-15T09:02:04;100328.41;;;14.21;73.25
71857;BME280;63344;46.980;28.882;2023-04-15T09:04:36;100327.56;;;14.21;73.22
71857;BME280;63344;46.980;28.882;2023-04-15T09:07:04;100323.84;;;14.23;73.59
71857;BME280;63344;46.980;28.882;2023-04-15T09:09:33;100329.09;;;14.25;73.51
71857;BME280;63344;46.980;28.882;2023-04-15T09:12:03;100316.13;;;14.19;73.84
71857;BME280;63344;46.980;28.882;2023-04-15T09:14:30;100319.31;;;14.09;74.01
71857;BME280;63344;46.980;28.882;2023-04-15T09:17:00;100314.53;;;14.00;73.81
71857;BME280;63344;46.980;28.882;2023-04-15T09:19:29;100324.19;;;13.87;74.35
71857;BME280;63344;46.980;28.882;2023-04-15T09:21:58;100328.25;;;13.78;74.85
71857;BME280;63344;46.980;28.882;2023-04-15T09:24:36;100324.97;;;13.73;74.96
71857;BME280;63344;46.980;28.882;2023-04-15T09:27:07;100329.03;;;13.64;75.16
71857;BME280;63344;46.980;28.882;2023-04-15T09:29:34;100340.97;;;13.57;75.53
71857;BME280;63344;46.980;28.882;2023-04-15T09:32:14;100356.91;;;13.59;76.26
71857;BME280;63344;46.980;28.882;2023-04-15T09:34:44;100361.41;;;13.58;76.04
71857;BME280;63344;46.980;28.882;2023-04-15T09:37:16;100364.41;;;13.52;76.55
71857;BME280;63344;46.980;28.882;2023-04-15T09:39:58;100366.19;;;13.51;76.75
71857;BME280;63344;46.980;28.882;2023-04-15T09:42:26;100370.81;;;13.48;77.16
71857;BME280;63344;46.980;28.882;2023-04-15T09:44:54;100372.72;;;13.46;77.31
71857;BME280;63344;46.980;28.882;2023-04-15T09:47:30;100377.47;;;13.41;77.85
71857;BME280;63344;46.980;28.882;2023-04-15T09:49:59;100383.91;;;13.37;78.20
71857;BME280;63344;46.980;28.882;2023-04-15T09:52:27;100394.97;;;13.29;79.50
71857;BME280;63344;46.980;28.882;2023-04-15T09:54:57;100398.81;;;13.23;80.45
71857;BME280;63344;46.980;28.882;2023-04-15T09:57:33;100390.44;;;13.13;80.69
71857;BME280;63344;46.980;28.882;2023-04-15T10:00:00;100390.00;;;13.05;81.55
71857;BME280;63344;46.980;28.882;2023-04-15T10:02:30;100386.63;;;13.02;82.49
71857;BME280;63344;46.980;28.882;2023-04-15T10:05:01;100388.69;;;12.97;82.88
71857;BME280;63344;46.980;28.882;2023-04-15T10:07:31;100395.13;;;12.92;83.03
71857;BME280;63344;46.980;28.882;2023-04-15T10:10:02;100397.06;;;12.89;82.82
71857;BME280;63344;46.980;28.882;2023-04-15T10:12:32;100390.78;;;12.90;83.04
71857;BME280;63344;46.980;28.882;2023-04-15T10:15:03;100389.06;;;12.89;83.68
71857;BME280;63344;46.980;28.882;2023-04-15T10:17:32;100396.13;;;12.90;83.83
71857;BME280;63344;46.980;28.882;2023-04-15T10:20:03;100396.91;;;12.92;84.10
71857;BME280;63344;46.980;28.882;2023-04-15T10:22:31;100398.56;;;12.94;84.55
71857;BME280;63344;46.980;28.882;2023-04-15T10:24:59;100402.16;;;12.93;85.03
71857;BME280;63344;46.980;28.882;2023-04-15T10:27:27;100405.53;;;12.97;85.43
71857;BME280;63344;46.980;28.882;2023-04-15T10:29:55;100410.84;;;12.97;85.31
71857;BME280;63344;46.980;28.882;2023-04-15T10:32:23;100417.16;;;12.96;85.73
71857;BME280;63344;46.980;28.882;2023-04-15T10:34:52;100410.94;;;12.95;86.27
71857;BME280;63344;46.980;28.882;2023-04-15T10:37:24;100403.00;;;12.94;86.42
71857;BME280;63344;46.980;28.882;2023-04-15T10:39:59;100398.72;;;12.91;87.23
71857;BME280;63344;46.980;28.882;2023-04-15T10:42:33;100403.00;;;12.94;87.82
71857;BME280;63344;46.980;28.882;2023-04-15T10:45:03;100400.44;;;12.92;87.67
71857;BME280;63344;46.980;28.882;2023-04-15T10:47:45;100414.31;;;12.99;87.46
71857;BME280;63344;46.980;28.882;2023-04-15T10:50:17;100411.38;;;13.04;87.27
71857;BME280;63344;46.980;28.882;2023-04-15T10:52:45;100415.47;;;13.11;87.87
71857;BME280;63344;46.980;28.882;2023-04-15T10:55:19;100408.78;;;13.20;87.64
71857;BME280;63344;46.980;28.882;2023-04-15T10:57:54;100412.00;;;13.26;87.61
71857;BME280;63344;46.980;28.882;2023-04-15T11:00:25;100417.03;;;13.32;87.21
71857;BME280;63344;46.980;28.882;2023-04-15T11:03:09;100413.59;;;13.30;86.74
71857;BME280;63344;46.980;28.882;2023-04-15T11:08:09;100415.16;;;13.17;88.15
71857;BME280;63344;46.980;28.882;2023-04-15T11:15:45;100421.28;;;13.02;89.13
71857;BME280;63344;46.980;28.882;2023-04-15T11:18:14;100433.22;;;12.94;89.69
71857;BME280;63344;46.980;28.882;2023-04-15T11:20:47;100437.19;;;12.86;89.93
71857;BME280;63344;46.980;28.882;2023-04-15T11:23:19;100442.53;;;12.86;90.02
71857;BME280;63344;46.980;28.882;2023-04-15T11:25:46;100437.97;;;12.88;90.63
71857;BME280;63344;46.980;28.882;2023-04-15T11:28:15;100444.19;;;12.88;90.70
71857;BME280;63344;46.980;28.882;2023-04-15T11:30:46;100441.53;;;12.88;90.30
71857;BME280;63344;46.980;28.882;2023-04-15T11:33:14;100439.88;;;12.86;90.43
71857;BME280;63344;46.980;28.882;2023-04-15T11:35:44;100427.03;;;12.77;90.87
71857;BME280;63344;46.980;28.882;2023-04-15T11:38:12;100433.34;;;12.74;91.09
71857;BME280;63344;46.980;28.882;2023-04-15T11:40:40;100431.66;;;12.73;91.52
71857;BME280;63344;46.980;28.882;2023-04-15T11:43:20;100430.94;;;12.69;91.15
71857;BME280;63344;46.980;28.882;2023-04-15T11:48:27;100438.69;;;12.57;91.20
71857;BME280;63344;46.980;28.882;2023-04-15T11:51:01;100428.88;;;12.57;91.43
71857;BME280;63344;46.980;28.882;2023-04-15T11:53:47;100433.13;;;12.61;92.12
71857;BME280;63344;46.980;28.882;2023-04-15T11:56:22;100426.88;;;12.62;92.19
71857;BME280;63344;46.980;28.882;2023-04-15T11:58:58;100442.69;;;12.65;92.71
71857;BME280;63344;46.980;28.882;2023-04-15T12:01:33;100454.31;;;12.64;92.05
71857;BME280;63344;46.980;28.882;2023-04-15T12:04:14;100459.94;;;12.58;92.55
71857;BME280;63344;46.980;28.882;2023-04-15T12:06:44;100467.94;;;12.58;92.55
71857;BME280;63344;46.980;28.882;2023-04-15T12:09:12;100462.75;;;12.55;92.94
71857;BME280;63344;46.980;28.882;2023-04-15T12:11:58;100446.81;;;12.53;92.97
71857;BME280;63344;46.980;28.882;2023-04-15T12:14:30;100444.16;;;12.53;93.06
71857;BME280;63344;46.980;28.882;2023-04-15T12:17:02;100434.34;;;12.54;93.76
71857;BME280;63344;46.980;28.882;2023-04-15T12:19:35;100452.94;;;12.55;93.85
71857;BME280;63344;46.980;28.882;2023-04-15T12:22:11;100447.53;;;12.57;94.40
71857;BME280;63344;46.980;28.882;2023-04-15T12:24:41;100442.22;;;12.57;94.36
71857;BME280;63344;46.980;28.882;2023-04-15T12:27:15;100446.63;;;12.58;94.28
71857;BME280;63344;46.980;28.882;2023-04-15T12:29:43;100431.41;;;12.60;93.74
71857;BME280;63344;46.980;28.882;2023-04-15T12:32:13;100421.53;;;12.62;92.96
71857;BME280;63344;46.980;28.882;2023-04-15T12:34:46;100398.34;;;12.64;91.14
71857;BME280;63344;46.980;28.882;2023-04-15T12:37:16;100402.34;;;12.73;90.93
71857;BME280;63344;46.980;28.882;2023-04-15T12:39:47;100406.88;;;12.88;90.51
71857;BME280;63344;46.980;28.882;2023-04-15T12:42:16;100415.63;;;13.08;88.31
71857;BME280;63344;46.980;28.882;2023-04-15T12:44:45;100421.97;;;13.23;88.19
71857;BME280;63344;46.980;28.882;2023-04-15T12:47:13;100426.66;;;13.35;87.46
71857;BME280;63344;46.980;28.882;2023-04-15T12:49:41;100422.97;;;13.38;86.27
71857;BME280;63344;46.980;28.882;2023-04-15T12:52:08;100422.56;;;13.45;86.53
71857;BME280;63344;46.980;28.882;2023-04-15T12:54:36;100412.50;;;13.50;84.93
71857;BME280;63344;46.980;28.882;2023-04-15T12:57:03;100401.66;;;13.53;84.04
71857;BME280;63344;46.980;28.882;2023-04-15T12:59:35;100399.09;;;13.68;80.95
71857;BME280;63344;46.980;28.882;2023-04-15T13:02:02;100375.25;;;13.97;80.04
71857;BME280;63344;46.980;28.882;2023-04-15T13:04:31;100373.06;;;14.03;80.81